sensor_id;sensor_type;location;lat;lon;timestamp;P1;durP1;ratioP1;P2;durP2;ratioP2
63370;SDS011;49504;48.336;14.472;2023-04-24T00:00:46;12.65;;;7.15;;
63370;SDS011;49504;48.336;14.472;2023-04-24T00:04:09;12.85;;;7.38;;
63370;SDS011;49504;48.336;14.472;2023-04-24T00:07:30;9.30;;;6.20;;
63370;SDS011;49504;48.336;14.472;2023-04-24T00:10:52;10.73;;;6.88;;
63370;SDS011;49504;48.336;14.472;2023-04-24T00:14:13;10.70;;;6.70;;
63370;SDS011;49504;48.336;14.472;2023-04-24T00:17:34;10.63;;;6.43;;
63370;SDS011;49504;48.336;14.472;2023-04-24T00:20:57;12.45;;;7.57;;
63370;SDS011;49504;48.336;14.472;2023-04-24T00:24:18;10.25;;;6.63;;
63370;SDS011;49504;48.336;14.472;2023-04-24T00:27:39;11.35;;;7.03;;
63370;SDS011;49504;48.336;14.472;2023-04-24T00:31:01;10.90;;;6.75;;
63370;SDS011;49504;48.336;14.472;2023-04-24T00:34:22;10.20;;;6.38;;
63370;SDS011;49504;48.336;14.472;2023-04-24T00:37:44;11.32;;;6.40;;
63370;SDS011;49504;48.336;14.472;2023-04-24T00:41:05;10.50;;;6.32;;
63370;SDS011;49504;48.336;14.472;2023-04-24T00:44:27;10.45;;;6.15;;
63370;SDS011;49504;48.336;14.472;2023-04-24T00:47:48;9.60;;;6.40;;
63370;SDS011;49504;48.336;14.472;2023-04-24T00:51:12;10.45;;;5.93;;
63370;SDS011;49504;48.336;14.472;2023-04-24T00:54:35;9.65;;;5.60;;
63370;SDS011;49504;48.336;14.472;2023-04-24T00:57:56;9.80;;;6.00;;
63370;SDS011;49504;48.336;14.472;2023-04-24T01:04:10;9.32;;;6.03;;
63370;SDS011;49504;48.336;14.472;2023-04-24T01:07:32;9.02;;;5.05;;
63370;SDS011;49504;48.336;14.472;2023-04-24T01:10:55;9.20;;;5.30;;
63370;SDS011;49504;48.336;14.472;2023-04-24T01:15:06;8.48;;;5.60;;
63370;SDS011;49504;48.336;14.472;2023-04-24T01:21:50;8.75;;;5.75;;
63370;SDS011;49504;48.336;14.472;2023-04-24T01:25:15;8.43;;;5.18;;
63370;SDS011;49504;48.336;14.472;2023-04-24T01:28:36;7.90;;;5.15;;
63370;SDS011;49504;48.336;14.472;2023-04-24T01:32:54;7.63;;;5.07;;
63370;SDS011;49504;48.336;14.472;2023-04-24T01:36:16;8.63;;;5.30;;
63370;SDS011;49504;48.336;14.472;2023-04-24T01:39:38;8.88;;;4.80;;
63370;SDS011;49504;48.336;14.472;2023-04-24T01:42:59;8.32;;;5.03;;
63370;SDS011;49504;48.336;14.472;2023-04-24T01:46:20;8.40;;;4.72;;
63370;SDS011;49504;48.336;14.472;2023-04-24T01:49:43;8.65;;;4.30;;
63370;SDS011;49504;48.336;14.472;2023-04-24T01:55:31;8.90;;;4.93;;
63370;SDS011;49504;48.336;14.472;2023-04-24T01:58:52;8.38;;;4.88;;
63370;SDS011;49504;48.336;14.472;2023-04-24T02:02:15;8.38;;;5.20;;
63370;SDS011;49504;48.336;14.472;2023-04-24T02:05:36;8.30;;;4.88;;
63370;SDS011;49504;48.336;14.472;2023-04-24T02:08:57;7.43;;;4.85;;
63370;SDS011;49504;48.336;14.472;2023-04-24T02:12:20;7.82;;;4.65;;
63370;SDS011;49504;48.336;14.472;2023-04-24T02:15:41;8.85;;;5.22;;
63370;SDS011;49504;48.336;14.472;2023-04-24T02:21:36;8.43;;;4.75;;
63370;SDS011;49504;48.336;14.472;2023-04-24T02:24:57;7.13;;;4.25;;
63370;SDS011;49504;48.336;14.472;2023-04-24T02:28:18;7.75;;;4.85;;
63370;SDS011;49504;48.336;14.472;2023-04-24T02:31:40;7.35;;;4.85;;
63370;SDS011;49504;48.336;14.472;2023-04-24T02:35:01;7.00;;;4.22;;
63370;SDS011;49504;48.336;14.472;2023-04-24T02:38:23;6.40;;;4.13;;
63370;SDS011;49504;48.336;14.472;2023-04-24T02:41:44;6.80;;;4.20;;
63370;SDS011;49504;48.336;14.472;2023-04-24T02:45:06;7.93;;;4.55;;
63370;SDS011;49504;48.336;14.472;2023-04-24T02:48:28;6.53;;;4.20;;
63370;SDS011;49504;48.336;14.472;2023-04-24T02:54:53;7.43;;;4.40;;
63370;SDS011;49504;48.336;14.472;2023-04-24T02:58:14;6.72;;;4.15;;
63370;SDS011;49504;48.336;14.472;2023-04-24T03:01:36;7.13;;;4.20;;
63370;SDS011;49504;48.336;14.472;2023-04-24T03:06:03;6.45;;;3.92;;
63370;SDS011;49504;48.336;14.472;2023-04-24T03:09:24;6.93;;;4.07;;
63370;SDS011;49504;48.336;14.472;2023-04-24T03:12:45;6.97;;;4.03;;
63370;SDS011;49504;48.336;14.472;2023-04-24T03:16:06;6.60;;;4.18;;
63370;SDS011;49504;48.336;14.472;2023-04-24T03:19:28;6.25;;;4.15;;
63370;SDS011;49504;48.336;14.472;2023-04-24T03:22:57;6.13;;;3.83;;
63370;SDS011;49504;48.336;14.472;2023-04-24T03:26:19;7.05;;;4.35;;
63370;SDS011;49504;48.336;14.472;2023-04-24T03:29:54;7.25;;;3.95;;
63370;SDS011;49504;48.336;14.472;2023-04-24T03:33:19;6.43;;;4.05;;
63370;SDS011;49504;48.336;14.472;2023-04-24T03:36:50;7.68;;;4.13;;
63370;SDS011;49504;48.336;14.472;2023-04-24T03:41:17;7.10;;;4.00;;
63370;SDS011;49504;48.336;14.472;2023-04-24T03:44:44;6.55;;;3.85;;
63370;SDS011;49504;48.336;14.472;2023-04-24T03:48:05;6.15;;;3.92;;
63370;SDS011;49504;48.336;14.472;2023-04-24T03:51:27;5.78;;;3.50;;
63370;SDS011;49504;48.336;14.472;2023-04-24T03:54:51;6.13;;;3.63;;
63370;SDS011;49504;48.336;14.472;2023-04-24T03:58:14;5.70;;;3.70;;
63370;SDS011;49504;48.336;14.472;2023-04-24T04:01:37;5.82;;;3.85;;
63370;SDS011;49504;48.336;14.472;2023-04-24T04:05:07;6.10;;;3.42;;
63370;SDS011;49504;48.336;14.472;2023-04-24T04:08:29;5.30;;;3.40;;
63370;SDS011;49504;48.336;14.472;2023-04-24T04:11:50;6.35;;;3.53;;
63370;SDS011;49504;48.336;14.472;2023-04-24T04:15:13;6.47;;;3.67;;
63370;SDS011;49504;48.336;14.472;2023-04-24T04:18:35;8.07;;;4.53;;
63370;SDS011;49504;48.336;14.472;2023-04-24T04:21:59;8.20;;;4.57;;
63370;SDS011;49504;48.336;14.472;2023-04-24T04:25:33;12.95;;;4.80;;
63370;SDS011;49504;48.336;14.472;2023-04-24T04:28:55;11.45;;;5.25;;
63370;SDS011;49504;48.336;14.472;2023-04-24T04:32:18;15.93;;;6.50;;
63370;SDS011;49504;48.336;14.472;2023-04-24T04:35:40;16.58;;;7.13;;
63370;SDS011;49504;48.336;14.472;2023-04-24T04:39:02;16.30;;;6.15;;
63370;SDS011;49504;48.336;14.472;2023-04-24T04:42:43;16.40;;;7.22;;
63370;SDS011;49504;48.336;14.472;2023-04-24T04:46:04;29.83;;;6.95;;
63370;SDS011;49504;48.336;14.472;2023-04-24T04:49:41;19.35;;;7.20;;
63370;SDS011;49504;48.336;14.472;2023-04-24T04:53:09;17.88;;;6.30;;
63370;SDS011;49504;48.336;14.472;2023-04-24T04:56:32;24.83;;;8.52;;
63370;SDS011;49504;48.336;14.472;2023-04-24T04:59:55;20.27;;;8.40;;
63370;SDS011;49504;48.336;14.472;2023-04-24T05:03:30;18.02;;;7.38;;
63370;SDS011;49504;48.336;14.472;2023-04-24T05:06:58;11.30;;;4.88;;
63370;SDS011;49504;48.336;14.472;2023-04-24T05:10:22;11.10;;;4.85;;
63370;SDS011;49504;48.336;14.472;2023-04-24T05:13:46;12.93;;;5.40;;
63370;SDS011;49504;48.336;14.472;2023-04-24T05:20:06;15.52;;;5.35;;
63370;SDS011;49504;48.336;14.472;2023-04-24T05:23:28;11.25;;;5.03;;
63370;SDS011;49504;48.336;14.472;2023-04-24T05:28:51;12.60;;;5.32;;
63370;SDS011;49504;48.336;14.472;2023-04-24T05:35:01;13.45;;;4.97;;
63370;SDS011;49504;48.336;14.472;2023-04-24T05:38:22;10.32;;;4.65;;
63370;SDS011;49504;48.336;14.472;2023-04-24T05:41:43;11.13;;;4.78;;
63370;SDS011;49504;48.336;14.472;2023-04-24T05:45:05;8.50;;;4.40;;
63370;SDS011;49504;48.336;14.472;2023-04-24T05:48:29;11.98;;;4.90;;
63370;SDS011;49504;48.336;14.472;2023-04-24T05:51:51;10.43;;;4.88;;
63370;SDS011;49504;48.336;14.472;2023-04-24T05:55:12;11.90;;;4.95;;
63370;SDS011;49504;48.336;14.472;2023-04-24T05:58:36;9.48;;;4.45;;
63370;SDS011;49504;48.336;14.472;2023-04-24T06:01:58;11.32;;;5.82;;
63370;SDS011;49504;48.336;14.472;2023-04-24T06:06:22;10.02;;;5.20;;
63370;SDS011;49504;48.336;14.472;2023-04-24T06:09:45;11.27;;;5.50;;
63370;SDS011;49504;48.336;14.472;2023-04-24T06:13:06;8.68;;;4.88;;
63370;SDS011;49504;48.336;14.472;2023-04-24T06:16:30;7.50;;;4.50;;
63370;SDS011;49504;48.336;14.472;2023-04-24T06:19:56;9.13;;;4.57;;
63370;SDS011;49504;48.336;14.472;2023-04-24T06:26:33;10.02;;;4.53;;
63370;SDS011;49504;48.336;14.472;2023-04-24T06:29:54;9.57;;;4.47;;
63370;SDS011;49504;48.336;14.472;2023-04-24T06:33:15;9.13;;;4.32;;
63370;SDS011;49504;48.336;14.472;2023-04-24T06:36:37;9.63;;;4.18;;
63370;SDS011;49504;48.336;14.472;2023-04-24T06:39:58;9.20;;;4.53;;
63370;SDS011;49504;48.336;14.472;2023-04-24T06:43:20;8.27;;;4.38;;
63370;SDS011;49504;48.336;14.472;2023-04-24T06:46:42;8.02;;;4.30;;
63370;SDS011;49504;48.336;14.472;2023-04-24T06:50:03;9.50;;;3.88;;
63370;SDS011;49504;48.336;14.472;2023-04-24T06:53:26;9.70;;;4.63;;
63370;SDS011;49504;48.336;14.472;2023-04-24T06:56:47;9.52;;;4.35;;
63370;SDS011;49504;48.336;14.472;2023-04-24T07:00:10;8.75;;;4.25;;
63370;SDS011;49504;48.336;14.472;2023-04-24T07:03:33;9.82;;;4.45;;
63370;SDS011;49504;48.336;14.472;2023-04-24T07:06:54;8.32;;;4.30;;
63370;SDS011;49504;48.336;14.472;2023-04-24T07:11:45;8.13;;;3.88;;
63370;SDS011;49504;48.336;14.472;2023-04-24T07:15:06;7.40;;;3.55;;
63370;SDS011;49504;48.336;14.472;2023-04-24T07:18:29;8.15;;;3.88;;
63370;SDS011;49504;48.336;14.472;2023-04-24T07:21:50;6.82;;;3.72;;
63370;SDS011;49504;48.336;14.472;2023-04-24T07:25:11;7.68;;;4.28;;
63370;SDS011;49504;48.336;14.472;2023-04-24T07:28:33;6.97;;;3.45;;
63370;SDS011;49504;48.336;14.472;2023-04-24T07:31:54;6.90;;;3.33;;
63370;SDS011;49504;48.336;14.472;2023-04-24T07:35:16;8.23;;;4.00;;
63370;SDS011;49504;48.336;14.472;2023-04-24T07:38:37;6.68;;;3.67;;
63370;SDS011;49504;48.336;14.472;2023-04-24T07:41:58;7.82;;;3.53;;
63370;SDS011;49504;48.336;14.472;2023-04-24T07:45:20;7.50;;;3.70;;
63370;SDS011;49504;48.336;14.472;2023-04-24T07:48:42;8.35;;;3.85;;
63370;SDS011;49504;48.336;14.472;2023-04-24T07:52:03;9.80;;;4.28;;
63370;SDS011;49504;48.336;14.472;2023-04-24T07:55:24;7.80;;;3.55;;
63370;SDS011;49504;48.336;14.472;2023-04-24T07:58:45;6.75;;;3.45;;
63370;SDS011;49504;48.336;14.472;2023-04-24T08:02:07;7.25;;;3.75;;
63370;SDS011;49504;48.336;14.472;2023-04-24T08:05:28;7.13;;;3.78;;
63370;SDS011;49504;48.336;14.472;2023-04-24T08:08:50;8.00;;;3.92;;
63370;SDS011;49504;48.336;14.472;2023-04-24T08:12:11;7.32;;;3.35;;
63370;SDS011;49504;48.336;14.472;2023-04-24T08:15:32;7.35;;;3.40;;
63370;SDS011;49504;48.336;14.472;2023-04-24T08:18:54;6.10;;;3.40;;
63370;SDS011;49504;48.336;14.472;2023-04-24T08:22:16;7.85;;;3.90;;
63370;SDS011;49504;48.336;14.472;2023-04-24T08:25:37;7.72;;;3.90;;
63370;SDS011;49504;48.336;14.472;2023-04-24T08:28:58;7.10;;;3.80;;
63370;SDS011;49504;48.336;14.472;2023-04-24T08:32:19;6.65;;;3.38;;
63370;SDS011;49504;48.336;14.472;2023-04-24T08:35:41;5.85;;;3.30;;
63370;SDS011;49504;48.336;14.472;2023-04-24T08:39:03;5.55;;;2.97;;
63370;SDS011;49504;48.336;14.472;2023-04-24T08:42:24;5.82;;;3.25;;
63370;SDS011;49504;48.336;14.472;2023-04-24T08:45:48;6.75;;;3.63;;
63370;SDS011;49504;48.336;14.472;2023-04-24T08:49:10;5.65;;;3.20;;
63370;SDS011;49504;48.336;14.472;2023-04-24T08:52:33;7.38;;;3.63;;
63370;SDS011;49504;48.336;14.472;2023-04-24T08:55:55;5.60;;;3.10;;
63370;SDS011;49504;48.336;14.472;2023-04-24T08:59:16;5.88;;;3.20;;
63370;SDS011;49504;48.336;14.472;2023-04-24T09:02:39;5.72;;;3.15;;
63370;SDS011;49504;48.336;14.472;2023-04-24T09:06:02;5.72;;;3.42;;
63370;SDS011;49504;48.336;14.472;2023-04-24T09:10:16;6.22;;;3.13;;
63370;SDS011;49504;48.336;14.472;2023-04-24T09:13:37;6.25;;;3.00;;
63370;SDS011;49504;48.336;14.472;2023-04-24T09:16:59;7.32;;;3.08;;
63370;SDS011;49504;48.336;14.472;2023-04-24T09:20:20;5.55;;;2.70;;
63370;SDS011;49504;48.336;14.472;2023-04-24T09:23:41;5.38;;;3.20;;
63370;SDS011;49504;48.336;14.472;2023-04-24T09:27:04;4.57;;;2.50;;
63370;SDS011;49504;48.336;14.472;2023-04-24T09:30:25;4.80;;;2.53;;
63370;SDS011;49504;48.336;14.472;2023-04-24T09:33:53;5.25;;;2.35;;
63370;SDS011;49504;48.336;14.472;2023-04-24T09:38:48;4.57;;;2.47;;
63370;SDS011;49504;48.336;14.472;2023-04-24T09:42:09;4.45;;;2.47;;
63370;SDS011;49504;48.336;14.472;2023-04-24T09:45:34;5.05;;;2.50;;
63370;SDS011;49504;48.336;14.472;2023-04-24T09:48:56;6.32;;;2.97;;
63370;SDS011;49504;48.336;14.472;2023-04-24T09:52:18;4.65;;;2.28;;
63370;SDS011;49504;48.336;14.472;2023-04-24T09:58:41;5.05;;;2.65;;
63370;SDS011;49504;48.336;14.472;2023-04-24T10:02:02;4.95;;;2.42;;
63370;SDS011;49504;48.336;14.472;2023-04-24T10:05:37;4.80;;;2.40;;
63370;SDS011;49504;48.336;14.472;2023-04-24T10:08:58;4.32;;;2.20;;
63370;SDS011;49504;48.336;14.472;2023-04-24T10:12:20;4.78;;;2.30;;
63370;SDS011;49504;48.336;14.472;2023-04-24T10:15:43;4.30;;;2.17;;
63370;SDS011;49504;48.336;14.472;2023-04-24T10:19:04;4.88;;;2.40;;
63370;SDS011;49504;48.336;14.472;2023-04-24T10:23:27;4.25;;;2.42;;
63370;SDS011;49504;48.336;14.472;2023-04-24T10:26:50;4.43;;;2.40;;
63370;SDS011;49504;48.336;14.472;2023-04-24T10:30:12;4.93;;;1.98;;
63370;SDS011;49504;48.336;14.472;2023-04-24T10:33:34;4.60;;;2.47;;
63370;SDS011;49504;48.336;14.472;2023-04-24T10:36:56;5.25;;;2.45;;
63370;SDS011;49504;48.336;14.472;2023-04-24T10:40:19;4.90;;;2.10;;
63370;SDS011;49504;48.336;14.472;2023-04-24T10:43:47;4.28;;;1.88;;
63370;SDS011;49504;48.336;14.472;2023-04-24T10:47:12;5.75;;;2.53;;
63370;SDS011;49504;48.336;14.472;2023-04-24T10:50:43;4.72;;;2.20;;
63370;SDS011;49504;48.336;14.472;2023-04-24T10:54:15;4.85;;;2.40;;
63370;SDS011;49504;48.336;14.472;2023-04-24T11:01:25;4.68;;;2.50;;
63370;SDS011;49504;48.336;14.472;2023-04-24T11:04:47;4.88;;;2.05;;
63370;SDS011;49504;48.336;14.472;2023-04-24T11:08:12;4.28;;;2.10;;
63370;SDS011;49504;48.336;14.472;2023-04-24T11:11:35;4.38;;;2.30;;
63370;SDS011;49504;48.336;14.472;2023-04-24T11:15:02;4.05;;;2.35;;
63370;SDS011;49504;48.336;14.472;2023-04-24T11:18:24;4.00;;;1.98;;
63370;SDS011;49504;48.336;14.472;2023-04-24T11:21:45;4.72;;;2.17;;
63370;SDS011;49504;48.336;14.472;2023-04-24T11:25:08;4.20;;;2.20;;
63370;SDS011;49504;48.336;14.472;2023-04-24T11:28:30;4.05;;;2.10;;
63370;SDS011;49504;48.336;14.472;2023-04-24T11:31:52;5.78;;;2.60;;
63370;SDS011;49504;48.336;14.472;2023-04-24T11:35:14;3.90;;;2.08;;
63370;SDS011;49504;48.336;14.472;2023-04-24T11:38:36;4.43;;;2.35;;
63370;SDS011;49504;48.336;14.472;2023-04-24T11:42:01;4.68;;;2.22;;
63370;SDS011;49504;48.336;14.472;2023-04-24T11:45:23;4.45;;;2.50;;
63370;SDS011;49504;48.336;14.472;2023-04-24T11:48:48;4.10;;;2.20;;
63370;SDS011;49504;48.336;14.472;2023-04-24T11:52:09;4.38;;;2.35;;
63370;SDS011;49504;48.336;14.472;2023-04-24T11:55:30;5.00;;;2.63;;
63370;SDS011;49504;48.336;14.472;2023-04-24T11:58:51;3.60;;;1.90;;
63370;SDS011;49504;48.336;14.472;2023-04-24T12:02:22;4.40;;;2.10;;
63370;SDS011;49504;48.336;14.472;2023-04-24T12:05:46;3.55;;;2.00;;
63370;SDS011;49504;48.336;14.472;2023-04-24T12:09:07;4.43;;;2.25;;
63370;SDS011;49504;48.336;14.472;2023-04-24T12:12:29;4.18;;;1.90;;
63370;SDS011;49504;48.336;14.472;2023-04-24T12:15:50;4.30;;;2.08;;
63370;SDS011;49504;48.336;14.472;2023-04-24T12:19:11;3.80;;;1.95;;
63370;SDS011;49504;48.336;14.472;2023-04-24T12:22:46;4.15;;;2.25;;
63370;SDS011;49504;48.336;14.472;2023-04-24T12:26:09;3.90;;;2.17;;
63370;SDS011;49504;48.336;14.472;2023-04-24T12:29:30;3.78;;;2.10;;
63370;SDS011;49504;48.336;14.472;2023-04-24T12:32:51;3.95;;;1.90;;
63370;SDS011;49504;48.336;14.472;2023-04-24T12:36:12;4.00;;;2.35;;
63370;SDS011;49504;48.336;14.472;2023-04-24T12:39:35;4.07;;;2.00;;
63370;SDS011;49504;48.336;14.472;2023-04-24T12:42:56;4.18;;;2.25;;
63370;SDS011;49504;48.336;14.472;2023-04-24T12:46:17;4.50;;;2.30;;
63370;SDS011;49504;48.336;14.472;2023-04-24T12:49:39;4.95;;;2.22;;
63370;SDS011;49504;48.336;14.472;2023-04-24T12:53:00;3.88;;;2.08;;
63370;SDS011;49504;48.336;14.472;2023-04-24T12:56:22;4.60;;;2.25;;
63370;SDS011;49504;48.336;14.472;2023-04-24T12:59:46;4.75;;;2.22;;
63370;SDS011;49504;48.336;14.472;2023-04-24T13:03:09;4.40;;;1.83;;
63370;SDS011;49504;48.336;14.472;2023-04-24T13:06:30;4.60;;;2.40;;
63370;SDS011;49504;48.336;14.472;2023-04-24T13:09:52;5.00;;;2.35;;
63370;SDS011;49504;48.336;14.472;2023-04-24T13:13:22;4.93;;;2.45;;
63370;SDS011;49504;48.336;14.472;2023-04-24T13:16:49;3.67;;;1.70;;
63370;SDS011;49504;48.336;14.472;2023-04-24T13:20:10;4.22;;;2.03;;
63370;SDS011;49504;48.336;14.472;2023-04-24T13:23:31;4.10;;;1.85;;
63370;SDS011;49504;48.336;14.472;2023-04-24T13:26:55;4.32;;;1.98;;
63370;SDS011;49504;48.336;14.472;2023-04-24T13:30:18;3.88;;;1.80;;
63370;SDS011;49504;48.336;14.472;2023-04-24T13:33:39;4.05;;;1.80;;
63370;SDS011;49504;48.336;14.472;2023-04-24T13:37:00;4.00;;;1.92;;
63370;SDS011;49504;48.336;14.472;2023-04-24T13:40:22;4.05;;;1.98;;
63370;SDS011;49504;48.336;14.472;2023-04-24T13:43:43;4.25;;;1.90;;
63370;SDS011;49504;48.336;14.472;2023-04-24T13:50:21;4.13;;;1.90;;
63370;SDS011;49504;48.336;14.472;2023-04-24T13:53:43;4.07;;;1.98;;
63370;SDS011;49504;48.336;14.472;2023-04-24T13:57:04;6.80;;;1.95;;
63370;SDS011;49504;48.336;14.472;2023-04-24T14:00:27;4.57;;;2.05;;
63370;SDS011;49504;48.336;14.472;2023-04-24T14:06:00;5.10;;;2.50;;
63370;SDS011;49504;48.336;14.472;2023-04-24T14:09:22;5.03;;;2.75;;
63370;SDS011;49504;48.336;14.472;2023-04-24T14:12:44;3.95;;;1.80;;
63370;SDS011;49504;48.336;14.472;2023-04-24T14:16:06;4.03;;;1.75;;
63370;SDS011;49504;48.336;14.472;2023-04-24T14:19:27;7.43;;;2.10;;
63370;SDS011;49504;48.336;14.472;2023-04-24T14:22:49;3.70;;;1.80;;
63370;SDS011;49504;48.336;14.472;2023-04-24T14:26:11;4.18;;;1.90;;
63370;SDS011;49504;48.336;14.472;2023-04-24T14:29:32;3.53;;;1.58;;
63370;SDS011;49504;48.336;14.472;2023-04-24T14:32:53;4.82;;;1.98;;
63370;SDS011;49504;48.336;14.472;2023-04-24T14:36:14;3.67;;;1.80;;
63370;SDS011;49504;48.336;14.472;2023-04-24T14:39:37;4.45;;;2.00;;
63370;SDS011;49504;48.336;14.472;2023-04-24T14:42:58;4.10;;;1.90;;
63370;SDS011;49504;48.336;14.472;2023-04-24T14:46:19;3.45;;;1.65;;
63370;SDS011;49504;48.336;14.472;2023-04-24T14:49:40;3.85;;;1.67;;
63370;SDS011;49504;48.336;14.472;2023-04-24T14:53:02;4.07;;;1.80;;
63370;SDS011;49504;48.336;14.472;2023-04-24T14:56:24;4.40;;;1.75;;
63370;SDS011;49504;48.336;14.472;2023-04-24T14:59:45;3.53;;;1.92;;
63370;SDS011;49504;48.336;14.472;2023-04-24T15:03:06;4.05;;;2.00;;
63370;SDS011;49504;48.336;14.472;2023-04-24T15:06:29;5.00;;;1.73;;
63370;SDS011;49504;48.336;14.472;2023-04-24T15:09:50;3.78;;;1.80;;
63370;SDS011;49504;48.336;14.472;2023-04-24T15:13:13;3.72;;;1.60;;
63370;SDS011;49504;48.336;14.472;2023-04-24T15:16:34;5.03;;;1.92;;
63370;SDS011;49504;48.336;14.472;2023-04-24T15:19:55;3.70;;;1.60;;
63370;SDS011;49504;48.336;14.472;2023-04-24T15:23:17;5.13;;;2.25;;
63370;SDS011;49504;48.336;14.472;2023-04-24T15:26:38;4.70;;;1.73;;
63370;SDS011;49504;48.336;14.472;2023-04-24T15:30:01;4.20;;;1.70;;
63370;SDS011;49504;48.336;14.472;2023-04-24T15:33:22;6.85;;;1.42;;
63370;SDS011;49504;48.336;14.472;2023-04-24T15:36:44;3.65;;;1.90;;
63370;SDS011;49504;48.336;14.472;2023-04-24T15:40:06;6.03;;;1.60;;
63370;SDS011;49504;48.336;14.472;2023-04-24T15:43:28;3.40;;;1.33;;
63370;SDS011;49504;48.336;14.472;2023-04-24T15:46:50;7.47;;;1.50;;
63370;SDS011;49504;48.336;14.472;2023-04-24T15:50:11;4.03;;;1.65;;
63370;SDS011;49504;48.336;14.472;2023-04-24T15:53:33;3.58;;;1.40;;
63370;SDS011;49504;48.336;14.472;2023-04-24T15:56:54;4.53;;;1.63;;
63370;SDS011;49504;48.336;14.472;2023-04-24T16:00:15;3.58;;;1.77;;
63370;SDS011;49504;48.336;14.472;2023-04-24T16:03:39;3.38;;;1.67;;
63370;SDS011;49504;48.336;14.472;2023-04-24T16:07:00;3.42;;;1.60;;
63370;SDS011;49504;48.336;14.472;2023-04-24T16:10:49;3.97;;;1.30;;
63370;SDS011;49504;48.336;14.472;2023-04-24T16:14:10;3.60;;;1.60;;
63370;SDS011;49504;48.336;14.472;2023-04-24T16:17:31;3.33;;;1.35;;
63370;SDS011;49504;48.336;14.472;2023-04-24T16:20:52;3.30;;;1.38;;
63370;SDS011;49504;48.336;14.472;2023-04-24T16:24:13;3.25;;;1.13;;
63370;SDS011;49504;48.336;14.472;2023-04-24T16:27:36;4.18;;;1.60;;
63370;SDS011;49504;48.336;14.472;2023-04-24T16:33:50;3.40;;;1.50;;
63370;SDS011;49504;48.336;14.472;2023-04-24T16:37:11;3.47;;;1.40;;
63370;SDS011;49504;48.336;14.472;2023-04-24T16:40:32;3.67;;;1.30;;
63370;SDS011;49504;48.336;14.472;2023-04-24T16:43:54;8.18;;;1.75;;
63370;SDS011;49504;48.336;14.472;2023-04-24T16:47:15;4.32;;;1.33;;
63370;SDS011;49504;48.336;14.472;2023-04-24T16:50:37;2.95;;;1.20;;
63370;SDS011;49504;48.336;14.472;2023-04-24T16:56:31;3.22;;;1.40;;
63370;SDS011;49504;48.336;14.472;2023-04-24T16:59:52;4.00;;;1.30;;
63370;SDS011;49504;48.336;14.472;2023-04-24T17:03:13;2.80;;;1.08;;
63370;SDS011;49504;48.336;14.472;2023-04-24T17:06:34;4.05;;;1.42;;
63370;SDS011;49504;48.336;14.472;2023-04-24T17:09:55;3.15;;;1.23;;
63370;SDS011;49504;48.336;14.472;2023-04-24T17:13:18;3.03;;;1.38;;
63370;SDS011;49504;48.336;14.472;2023-04-24T17:16:39;2.97;;;1.10;;
63370;SDS011;49504;48.336;14.472;2023-04-24T17:20:31;3.22;;;1.00;;
63370;SDS011;49504;48.336;14.472;2023-04-24T17:23:52;4.90;;;1.27;;
63370;SDS011;49504;48.336;14.472;2023-04-24T17:27:14;4.00;;;1.30;;
63370;SDS011;49504;48.336;14.472;2023-04-24T17:30:35;2.63;;;1.10;;
63370;SDS011;49504;48.336;14.472;2023-04-24T17:34:23;2.60;;;1.20;;
63370;SDS011;49504;48.336;14.472;2023-04-24T17:37:47;6.47;;;1.13;;
63370;SDS011;49504;48.336;14.472;2023-04-24T17:41:08;2.40;;;0.90;;
63370;SDS011;49504;48.336;14.472;2023-04-24T17:45:33;4.63;;;1.30;;
63370;SDS011;49504;48.336;14.472;2023-04-24T17:48:54;2.90;;;1.20;;
63370;SDS011;49504;48.336;14.472;2023-04-24T17:52:15;2.58;;;1.17;;
63370;SDS011;49504;48.336;14.472;2023-04-24T17:55:36;3.90;;;1.45;;
63370;SDS011;49504;48.336;14.472;2023-04-24T17:58:58;3.63;;;1.20;;
63370;SDS011;49504;48.336;14.472;2023-04-24T18:02:22;2.65;;;1.02;;
63370;SDS011;49504;48.336;14.472;2023-04-24T18:05:43;4.63;;;1.40;;
63370;SDS011;49504;48.336;14.472;2023-04-24T18:09:04;3.15;;;1.20;;
63370;SDS011;49504;48.336;14.472;2023-04-24T18:15:06;3.05;;;1.35;;
63370;SDS011;49504;48.336;14.472;2023-04-24T18:18:29;3.00;;;1.20;;
63370;SDS011;49504;48.336;14.472;2023-04-24T18:21:50;3.20;;;1.20;;
63370;SDS011;49504;48.336;14.472;2023-04-24T18:25:12;2.65;;;1.15;;
63370;SDS011;49504;48.336;14.472;2023-04-24T18:28:33;3.30;;;1.30;;
63370;SDS011;49504;48.336;14.472;2023-04-24T18:31:56;3.42;;;1.23;;
63370;SDS011;49504;48.336;14.472;2023-04-24T18:35:17;3.83;;;1.10;;
63370;SDS011;49504;48.336;14.472;2023-04-24T18:38:38;3.92;;;1.33;;
63370;SDS011;49504;48.336;14.472;2023-04-24T18:43:08;3.90;;;1.48;;
63370;SDS011;49504;48.336;14.472;2023-04-24T18:46:29;4.07;;;1.58;;
63370;SDS011;49504;48.336;14.472;2023-04-24T18:49:50;3.13;;;1.30;;
63370;SDS011;49504;48.336;14.472;2023-04-24T18:53:11;3.95;;;1.38;;
63370;SDS011;49504;48.336;14.472;2023-04-24T18:56:32;3.33;;;1.63;;
63370;SDS011;49504;48.336;14.472;2023-04-24T18:59:55;2.92;;;1.30;;
63370;SDS011;49504;48.336;14.472;2023-04-24T19:03:16;2.88;;;1.30;;
63370;SDS011;49504;48.336;14.472;2023-04-24T19:06:38;2.88;;;1.17;;
63370;SDS011;49504;48.336;14.472;2023-04-24T19:09:59;3.22;;;1.40;;
63370;SDS011;49504;48.336;14.472;2023-04-24T19:13:20;3.75;;;1.42;;
63370;SDS011;49504;48.336;14.472;2023-04-24T19:16:43;3.05;;;1.35;;
63370;SDS011;49504;48.336;14.472;2023-04-24T19:20:04;3.00;;;1.17;;
63370;SDS011;49504;48.336;14.472;2023-04-24T19:23:27;3.95;;;1.35;;
63370;SDS011;49504;48.336;14.472;2023-04-24T19:26:48;3.58;;;1.40;;
63370;SDS011;49504;48.336;14.472;2023-04-24T19:30:10;4.43;;;1.55;;
63370;SDS011;49504;48.336;14.472;2023-04-24T19:33:33;4.13;;;1.48;;
63370;SDS011;49504;48.336;14.472;2023-04-24T19:36:54;3.15;;;1.40;;
63370;SDS011;49504;48.336;14.472;2023-04-24T19:40:15;3.72;;;1.48;;
63370;SDS011;49504;48.336;14.472;2023-04-24T19:43:37;3.30;;;1.50;;
63370;SDS011;49504;48.336;14.472;2023-04-24T19:48:22;3.50;;;1.30;;
63370;SDS011;49504;48.336;14.472;2023-04-24T19:51:43;3.10;;;1.20;;
63370;SDS011;49504;48.336;14.472;2023-04-24T19:55:04;3.80;;;1.40;;
63370;SDS011;49504;48.336;14.472;2023-04-24T19:58:26;3.30;;;1.60;;
63370;SDS011;49504;48.336;14.472;2023-04-24T20:01:47;3.38;;;1.45;;
63370;SDS011;49504;48.336;14.472;2023-04-24T20:05:10;3.60;;;1.33;;
63370;SDS011;49504;48.336;14.472;2023-04-24T20:08:31;2.85;;;1.30;;
63370;SDS011;49504;48.336;14.472;2023-04-24T20:11:52;3.05;;;1.40;;
63370;SDS011;49504;48.336;14.472;2023-04-24T20:15:13;3.17;;;1.40;;
63370;SDS011;49504;48.336;14.472;2023-04-24T20:18:34;3.63;;;1.73;;
63370;SDS011;49504;48.336;14.472;2023-04-24T20:21:57;2.92;;;1.23;;
63370;SDS011;49504;48.336;14.472;2023-04-24T20:25:18;3.28;;;1.30;;
63370;SDS011;49504;48.336;14.472;2023-04-24T20:28:40;3.58;;;1.30;;
63370;SDS011;49504;48.336;14.472;2023-04-24T20:32:01;3.25;;;1.45;;
63370;SDS011;49504;48.336;14.472;2023-04-24T20:35:22;2.67;;;1.20;;
63370;SDS011;49504;48.336;14.472;2023-04-24T20:38:44;3.05;;;1.27;;
63370;SDS011;49504;48.336;14.472;2023-04-24T20:42:06;2.90;;;1.30;;
63370;SDS011;49504;48.336;14.472;2023-04-24T20:45:27;2.92;;;1.00;;
63370;SDS011;49504;48.336;14.472;2023-04-24T20:48:48;3.08;;;1.45;;
63370;SDS011;49504;48.336;14.472;2023-04-24T20:52:09;3.75;;;1.60;;
63370;SDS011;49504;48.336;14.472;2023-04-24T20:55:31;2.72;;;1.20;;
63370;SDS011;49504;48.336;14.472;2023-04-24T20:58:53;3.17;;;1.38;;